Latest Coastal Weather Observations for Larapuna (Eddystone Point)

IDT60701

Issued at 9:33 pm EST Thursday 17 August 2017 (issued every 10 minutes, with the page automatically refreshed every 10 minutes)

About coastal observations | Map of coastal stations | Coastal observations for TAS | Marine services | Other Formats
Station Details ID: 092045 Name: LARAPUNA (EDDYSTONE POINT) Lat: -40.99 Lon: 148.35 Height: 19.7 m
Data from the previous 72 hours. | See also: Recent months at Larapuna (Eddystone Point)
Date/Time
EST
Temp
°C
Wind Pressure Rain since
9am
mm
Weather Cloud Vis
km
Sea
Height
m
Swell
Dir  Spd
kts
Gust
kts
hPa Trend Height
m
Period
s
Dir
17/09:30pm 6.7 W 12 17 995.5 - 0.6 - - - - - - -
17/09:00pm 7.0 NW 11 17 995.4 - 0.6 - - - - - - -
17/08:30pm 7.0 WSW 13 21 995.2 - 0.6 - - - - - - -
17/08:00pm 7.2 NW 17 24 994.5 - 0.6 - - - - - - -
17/07:30pm 7.2 NNW 15 22 994.2 - 0.6 - - - - - - -
17/07:00pm 7.5 NNW 14 17 994.4 - 0.6 - - - - - - -
17/06:30pm 7.9 NW 17 24 994.2 - 0.6 - - - - - - -
17/06:00pm 7.6 NW 14 19 994.6 - 0.6 - - - - - - -
17/05:30pm 7.5 NW 14 21 994.0 - 0.6 - - - - - - -
17/05:00pm 7.5 WNW 14 19 993.8 - 0.6 - - - - - - -
17/04:53pm 7.7 W 19 29 993.9 - 0.6 - - - - - - -
17/04:49pm 8.3 W 19 29 994.1 - 0.2 - - - - - - -
17/04:40pm 10.4 WNW 20 30 993.7 - 0.0 - - - - - - -
17/04:30pm 10.4 NW 23 32 993.3 - 0.0 - - - - - - -
17/04:05pm 11.1 NW 25 35 992.5 - 0.0 - - - - - - -
17/04:00pm 11.0 NW 26 35 992.6 - 0.0 - - - - - - -
17/03:36pm 11.4 NW 24 38 992.2 - 0.0 - - - - - - -
17/03:30pm 12.0 WNW 25 40 992.3 - 0.0 - - - - - - -
17/03:00pm 11.3 NW 24 34 992.2 - 0.0 - - - - - - -
17/02:33pm 12.4 WNW 25 35 992.0 - 0.0 - - - - - - -
17/02:30pm 12.4 WNW 26 35 992.0 - 0.0 - - - - - - -
17/02:00pm 13.1 WNW 24 36 992.0 - 0.0 - - - - - - -
17/01:33pm 13.1 WNW 21 33 992.1 - 0.0 - - - - - - -
17/01:30pm 13.1 WNW 21 30 992.1 - 0.0 - - - - - - -
17/01:05pm 12.7 WNW 22 32 992.5 - 0.0 - - - - - - -
17/01:00pm 12.4 WNW 24 31 992.6 - 0.0 - - - - - - -
17/12:41pm 12.0 WNW 23 34 992.6 - 0.0 - - - - - - -
17/12:30pm 11.4 WNW 24 32 992.7 - 0.0 - - - - - - -
17/12:00pm 12.4 WNW 20 30 993.0 - 0.0 - - - - - - -
17/11:38am 12.3 WNW 23 33 993.1 - 0.0 - - - - - - -
17/11:30am 12.1 WNW 24 33 993.2 - 0.0 - - - - - - -
17/11:00am 12.2 WNW 21 32 993.3 - 0.0 - - - - - - -
17/10:30am 11.8 WNW 25 40 993.5 - 0.0 - - - - - - -
17/10:00am 11.3 WNW 25 37 993.6 - 0.0 - - - - - - -
17/09:39am 11.2 WNW 22 32 993.7 - 0.0 - - - - - - -
17/09:30am 10.9 WNW 23 31 993.6 - 0.0 - - - - - - -
17/09:00am 10.4 WNW 21 31 993.5 - 5.2 - - - - - - -
17/08:37am 9.8 WNW 24 36 993.4 - 5.2 - - - - - - -
17/08:30am 9.6 WNW 23 32 993.2 - 5.2 - - - - - - -
17/08:14am 8.9 WNW 20 31 993.2 - 5.2 - - - - - - -
17/08:00am 8.6 WNW 19 26 993.0 - 5.2 - - - - - - -
17/07:30am 8.1 WNW 22 32 992.8 - 5.2 - - - - - - -
17/07:19am 7.8 WNW 21 35 992.6 - 5.0 - - - - - - -
17/07:00am 7.4 WNW 21 29 992.5 - 5.0 - - - - - - -
17/06:30am 7.7 W 22 39 993.0 - 5.0 - - - - - - -
17/06:29am 7.6 W 22 39 992.9 - 5.0 - - - - - - -
17/06:05am 6.9 WNW 16 26 992.4 - 5.0 - - - - - - -
17/06:00am 6.9 WNW 16 23 992.5 - 5.0 Recent precip. - - - - - -
17/05:32am 7.5 WNW 16 26 992.2 - 4.8 - - - - - - -
17/05:30am 7.6 WNW 17 26 992.2 - 4.8 - - - - - - -
17/05:02am 8.3 WNW 23 43 992.9 - 4.8 - - - - - - -
17/05:00am 8.3 NW 21 43 992.8 - 4.8 - - - - - - -
17/04:58am 8.3 NW 19 43 993.0 - 4.6 - - - - - - -
17/04:57am 8.8 NW 18 28 992.8 - 4.4 - - - - - - -
17/04:30am 8.1 NW 17 22 991.8 - 4.4 - - - - - - -
17/04:00am 7.9 WNW 12 15 991.9 - 4.2 - - - - - - -
17/03:30am 7.9 NW 13 19 992.4 - 4.2 - - - - - - -
17/03:00am 8.3 WNW 10 13 992.6 - 2.2 Recent precip. - - - - - -
17/02:30am 8.5 WNW 14 21 992.9 - 2.2 - - - - - - -
17/02:07am 8.6 NW 21 31 993.0 - 2.2 - - - - - - -
17/02:00am 8.7 NW 23 31 993.2 - 2.0 - - - - - - -
17/01:34am 10.5 NW 19 29 992.8 - 1.6 - - - - - - -
17/01:30am 10.9 WNW 17 25 993.4 - 1.6 - - - - - - -
17/01:00am 10.4 WNW 17 23 993.1 - 1.4 - - - - - - -
17/12:30am 10.0 WNW 18 27 992.8 - 1.4 - - - - - - -
17/12:19am 10.0 WNW 18 28 992.7 - 1.4 - - - - - - -
17/12:00am 9.8 WNW 21 29 992.8 - 1.4 - - - - - - -
 
Date/Time
EST
Temp
°C
Wind Pressure Rain since
9am
mm
Weather Cloud Vis
km
Sea
Height
m
Swell
Dir  Spd
kts
Gust
kts
hPa Trend Height
m
Period
s
Dir
16/11:48pm 9.7 WNW 20 31 992.9 - 1.4 - - - - - - -
16/11:30pm 9.3 WNW 21 27 992.6 - 1.4 - - - - - - -
16/11:00pm 9.3 WNW 24 34 992.6 - 1.4 - - - - - - -
16/10:31pm 9.8 WNW 24 37 992.4 - 1.4 - - - - - - -
16/10:30pm 9.9 WNW 25 34 992.4 - 1.4 - - - - - - -
16/10:00pm 10.3 WNW 23 34 992.4 - 1.4 - - - - - - -
16/09:30pm 9.9 WNW 23 33 992.2 - 1.4 - - - - - - -
16/09:00pm 9.6 NW 24 34 991.8 - 1.4 - - - - - - -
16/08:30pm 9.9 WNW 25 38 991.8 - 1.4 - - - - - - -
16/08:00pm 9.6 WNW 26 38 991.1 - 1.4 - - - - - - -
16/07:30pm 9.5 WNW 26 37 991.0 - 1.4 - - - - - - -
16/07:10pm 10.2 WNW 27 44 990.9 - 0.2 - - - - - - -
16/07:00pm 10.0 WNW 22 34 990.2 - 0.2 - - - - - - -
16/06:30pm 9.8 WNW 25 35 989.8 - 0.2 - - - - - - -
16/06:00pm 11.1 WNW 30 41 988.7 - 0.0 - - - - - - -
16/05:30pm 10.8 WNW 31 44 987.7 - 0.0 - - - - - - -
16/05:00pm 11.0 WNW 32 46 986.9 - 0.0 - - - - - - -
16/04:30pm 11.7 WNW 34 48 986.7 - 0.0 - - - - - - -
16/04:25pm 11.8 WNW 31 47 986.8 - 0.0 - - - - - - -
16/04:00pm 11.8 W 24 37 987.5 - 0.0 - - - - - - -
16/03:30pm 13.1 WNW 28 45 987.2 - 0.0 - - - - - - -
16/03:28pm 13.0 WNW 28 45 987.1 - 0.0 - - - - - - -
16/03:00pm 13.0 WNW 24 34 987.0 - 0.0 - - - - - - -
16/02:40pm 13.0 WNW 21 31 987.2 - 0.0 - - - - - - -
16/02:30pm 13.5 WNW 23 32 987.0 - 0.0 - - - - - - -
16/02:00pm 13.2 W 27 45 986.5 - 0.0 - - - - - - -
16/01:30pm 13.5 WNW 31 44 985.6 - 0.0 - - - - - - -
16/01:00pm 13.4 WNW 33 48 984.7 - 0.0 - - - - - - -
16/12:30pm 13.2 WNW 32 47 984.3 - 0.0 - - - - - - -
16/12:00pm 12.8 WNW 31 47 984.1 - 0.0 - - - - - - -
16/11:47am 12.6 WNW 31 50 984.1 - 0.0 - - - - - - -
16/11:30am 11.9 WNW 28 38 984.5 - 0.0 - - - - - - -
16/11:04am 11.0 WNW 23 33 985.1 - 0.0 - - - - - - -
16/11:00am 10.9 WNW 23 36 985.1 - 0.0 - - - - - - -
16/10:58am 10.9 WNW 23 36 985.1 - 0.0 - - - - - - -
16/10:30am 11.6 WNW 30 42 984.8 - 0.0 - - - - - - -
16/10:00am 10.7 NW 25 35 985.2 - 0.0 - - - - - - -
16/09:30am 10.3 NW 26 37 984.9 - 0.0 - - - - - - -
16/09:08am 10.0 NW 22 32 985.3 - 0.0 - - - - - - -
16/09:00am 10.0 NW 19 26 985.4 - 11.0 Recent precip. - - - - - -
16/08:30am 9.2 NW 18 23 985.7 - 11.0 - - - - - - -
16/08:00am 8.8 NW 19 23 985.7 - 10.8 - - - - - - -
16/07:30am 9.3 WNW 27 37 986.1 - 10.4 - - - - - - -
16/07:05am 10.8 NW 21 37 985.5 - 10.0 - - - - - - -
16/07:00am 10.9 NW 20 28 985.4 - 10.0 - - - - - - -
16/06:30am 10.5 NW 21 29 985.4 - 10.0 - - - - - - -
16/06:00am 11.0 NW 21 27 985.4 - 10.0 Recent precip. - - - - - -
16/05:30am 10.5 NW 21 27 985.1 - 10.0 - - - - - - -
16/05:00am 10.5 NW 18 26 986.1 - 9.8 - - - - - - -
16/04:30am 10.9 NW 21 27 986.2 - 9.2 - - - - - - -
16/04:00am 11.0 NNW 15 19 986.5 - 9.2 - - - - - - -
16/03:30am 10.4 NW 13 18 987.0 - 9.2 - - - - - - -
16/03:00am 10.6 NW 15 19 988.0 - 9.2 Recent precip. - - - - - -
16/02:30am 10.8 NW 16 19 988.4 - 9.2 - - - - - - -
16/02:00am 10.9 NW 15 20 989.3 - 9.0 - - - - - - -
16/01:30am 11.1 NW 13 17 989.7 - 9.0 - - - - - - -
16/01:00am 11.5 NW 17 22 990.2 - 9.0 - - - - - - -
16/12:30am 11.5 NW 18 23 990.5 - 9.0 - - - - - - -
16/12:00am 11.8 NW 16 20 990.8 - 9.0 - - - - - - -
 
Date/Time
EST
Temp
°C
Wind Pressure Rain since
9am
mm
Weather Cloud Vis
km
Sea
Height
m
Swell
Dir  Spd
kts
Gust
kts
hPa Trend Height
m
Period
s
Dir
15/11:30pm 11.9 NW 15 20 991.6 - 9.0 - - - - - - -
15/11:00pm 11.8 NW 13 19 991.8 - 9.0 - - - - - - -
15/10:30pm 11.9 NW 15 18 992.2 - 9.0 - - - - - - -
15/10:00pm 12.1 NW 13 18 991.9 - 9.0 - - - - - - -
15/09:30pm 12.1 NW 16 21 993.1 - 8.6 - - - - - - -
15/09:00pm 12.5 NW 16 20 992.8 - 6.0 - - - - - - -
15/08:30pm 12.8 NW 17 25 993.2 - 6.0 - - - - - - -
15/08:00pm 12.7 NW 16 21 993.2 - 6.0 - - - - - - -
15/07:30pm 12.9 NW 19 26 993.6 - 5.8 - - - - - - -
15/07:00pm 13.0 NW 19 25 993.7 - 5.2 - - - - - - -
15/06:30pm 12.9 NW 17 23 993.6 - 5.0 - - - - - - -
15/06:00pm 13.0 NW 18 26 993.9 - 4.6 Recent precip. - - - - - -
15/05:30pm 12.5 NW 23 34 993.4 - 4.4 - - - - - - -
15/05:26pm 12.5 NW 23 34 993.4 - 4.4 - - - - - - -
15/05:00pm 12.3 NW 22 29 993.8 - 4.2 - - - - - - -
15/04:30pm 12.2 NNW 22 29 993.9 - 4.0 - - - - - - -
15/04:00pm 12.2 NNW 21 27 994.5 - 3.4 - - - - - - -
15/03:30pm 12.4 NNW 15 20 995.2 - 2.2 - - - - - - -
15/03:00pm 12.4 NNW 16 20 995.7 - 1.4 Recent precip. - - - - - -
15/02:30pm 13.2 N 17 22 996.1 - 0.0 - - - - - - -
15/02:00pm 13.4 N 20 24 996.3 - 0.0 - - - - - - -
15/01:30pm 13.3 N 19 26 997.0 - 0.0 - - - - - - -
15/01:00pm 13.2 N 16 19 998.0 - 0.0 - - - - - - -
15/12:30pm 13.2 N 14 19 999.4 - 0.0 - - - - - - -
15/12:00pm 13.0 N 14 17 1000.6 - 0.0 - - - - - - -
15/11:30am 13.5 N 12 15 1001.8 - 0.0 - - - - - - -
15/11:00am 12.0 NNW 13 16 1003.0 - 0.0 - - - - - - -
15/10:30am 11.7 NNW 13 16 1003.8 - 0.0 - - - - - - -
15/10:00am 12.4 N 12 15 1004.2 - 0.0 - - - - - - -
15/09:30am 11.7 N 10 11 1004.8 - 0.0 - - - - - - -
15/09:00am 11.2 NNW 7 8 1005.5 - 0.0 - - - - - - -
15/08:30am 9.2 NNW 6 9 1006.0 - 0.0 - - - - - - -
15/08:00am 7.5 NNW 2 5 1006.3 - 0.0 - - - - - - -
15/07:30am 5.9 NW 7 8 1006.7 - 0.0 - - - - - - -
15/07:00am 5.4 NW 7 8 1007.0 - 0.0 - - - - - - -
15/06:30am 5.9 NW 8 10 1007.1 - 0.0 - - - - - - -
15/06:00am 6.5 NNW 5 8 1007.3 - 0.0 - - - - - - -
15/05:30am 6.9 NW 5 6 1007.5 - 0.0 - - - - - - -
15/05:00am 6.7 WNW 7 9 1007.6 - 0.0 - - - - - - -
15/04:30am 6.9 W 5 7 1007.9 - 0.0 - - - - - - -
15/04:00am 7.1 W 7 11 1008.3 - 0.0 - - - - - - -
15/03:30am 7.5 NW 9 12 1008.2 - 0.0 - - - - - - -
15/03:00am 8.1 NW 10 12 1008.4 - 0.0 - - - - - - -
15/02:30am 8.2 WNW 12 16 1008.5 - 0.0 - - - - - - -
15/02:00am 8.5 WNW 11 14 1009.1 - 0.0 - - - - - - -
15/01:30am 8.8 NW 12 15 1009.6 - 0.0 - - - - - - -
15/01:00am 8.9 WNW 12 17 1009.7 - 0.0 - - - - - - -
15/12:30am 9.3 NW 14 18 1009.8 - 0.0 - - - - - - -
15/12:00am 9.3 NW 13 17 1009.8 - 0.0 - - - - - - -
 
Date/Time
EST
Temp
°C
Wind Pressure Rain since
9am
mm
Weather Cloud Vis
km
Sea
Height
m
Swell
Dir  Spd
kts
Gust
kts
hPa Trend Height
m
Period
s
Dir
14/11:30pm 9.6 NW 11 14 1009.9 - 0.0 - - - - - - -
14/11:00pm 9.9 NW 11 13 1009.9 - 0.0 - - - - - - -
14/10:30pm 9.9 N 10 13 1010.1 - 0.0 - - - - - - -
14/10:00pm 8.8 NE 4 8 1009.7 - 0.0 - - - - - - -

Other Formats:

Comma delimited format used in spreadsheet applications
http://www.bom.gov.au/fwo/IDT60701/IDT60701.94983.axf

JavaScript Object Notation format (JSON) in row-major order
http://www.bom.gov.au/fwo/IDT60701/IDT60701.94983.json